sensor_id;sensor_type;location;lat;lon;timestamp;temperature;humidity
1766;DHT22;880;52.452;8.656;2023-04-23T00:01:14;14.10;99.90
1766;DHT22;880;52.452;8.656;2023-04-23T00:03:43;13.90;99.90
1766;DHT22;880;52.452;8.656;2023-04-23T00:06:11;13.70;99.90
1766;DHT22;880;52.452;8.656;2023-04-23T00:08:39;13.60;99.90
1766;DHT22;880;52.452;8.656;2023-04-23T00:11:08;13.60;99.90
1766;DHT22;880;52.452;8.656;2023-04-23T00:13:36;13.60;99.90
1766;DHT22;880;52.452;8.656;2023-04-23T00:16:03;13.60;99.90
1766;DHT22;880;52.452;8.656;2023-04-23T00:18:31;13.60;99.90
1766;DHT22;880;52.452;8.656;2023-04-23T00:20:58;13.50;99.90
1766;DHT22;880;52.452;8.656;2023-04-23T00:23:25;13.50;99.90
1766;DHT22;880;52.452;8.656;2023-04-23T00:25:52;13.50;99.90
1766;DHT22;880;52.452;8.656;2023-04-23T00:28:19;13.50;99.90
1766;DHT22;880;52.452;8.656;2023-04-23T00:30:48;13.50;99.90
1766;DHT22;880;52.452;8.656;2023-04-23T00:33:15;13.40;99.90
1766;DHT22;880;52.452;8.656;2023-04-23T00:35:42;13.40;99.90
1766;DHT22;880;52.452;8.656;2023-04-23T00:38:09;13.30;99.90
1766;DHT22;880;52.452;8.656;2023-04-23T00:40:36;13.30;99.90
1766;DHT22;880;52.452;8.656;2023-04-23T00:43:03;13.30;99.90
1766;DHT22;880;52.452;8.656;2023-04-23T00:45:30;13.30;99.90
1766;DHT22;880;52.452;8.656;2023-04-23T00:47:57;13.30;99.90
1766;DHT22;880;52.452;8.656;2023-04-23T00:50:25;13.20;99.90
1766;DHT22;880;52.452;8.656;2023-04-23T00:52:52;13.10;99.90
1766;DHT22;880;52.452;8.656;2023-04-23T00:55:19;13.00;99.90
1766;DHT22;880;52.452;8.656;2023-04-23T00:57:49;12.90;99.90
1766;DHT22;880;52.452;8.656;2023-04-23T01:00:16;12.70;99.90
1766;DHT22;880;52.452;8.656;2023-04-23T01:02:44;12.60;99.90
1766;DHT22;880;52.452;8.656;2023-04-23T01:05:14;12.60;99.90
1766;DHT22;880;52.452;8.656;2023-04-23T01:07:43;12.60;99.90
1766;DHT22;880;52.452;8.656;2023-04-23T01:10:11;12.60;99.90
1766;DHT22;880;52.452;8.656;2023-04-23T01:12:38;12.60;99.90
1766;DHT22;880;52.452;8.656;2023-04-23T01:15:06;12.70;99.90
1766;DHT22;880;52.452;8.656;2023-04-23T01:17:34;12.70;99.90
1766;DHT22;880;52.452;8.656;2023-04-23T01:20:01;12.60;99.90
1766;DHT22;880;52.452;8.656;2023-04-23T01:22:28;12.70;99.90
1766;DHT22;880;52.452;8.656;2023-04-23T01:24:55;12.60;99.90
1766;DHT22;880;52.452;8.656;2023-04-23T01:27:23;12.60;99.90
1766;DHT22;880;52.452;8.656;2023-04-23T01:29:51;12.50;99.90
1766;DHT22;880;52.452;8.656;2023-04-23T01:32:18;12.50;99.90
1766;DHT22;880;52.452;8.656;2023-04-23T01:34:47;12.30;99.90
1766;DHT22;880;52.452;8.656;2023-04-23T01:37:15;12.20;99.90
1766;DHT22;880;52.452;8.656;2023-04-23T01:39:42;12.10;99.90
1766;DHT22;880;52.452;8.656;2023-04-23T01:42:09;12.00;99.90
1766;DHT22;880;52.452;8.656;2023-04-23T01:44:37;12.00;99.90
1766;DHT22;880;52.452;8.656;2023-04-23T01:47:04;12.00;99.90
1766;DHT22;880;52.452;8.656;2023-04-23T01:49:32;12.00;99.90
1766;DHT22;880;52.452;8.656;2023-04-23T01:51:59;12.00;99.90
1766;DHT22;880;52.452;8.656;2023-04-23T01:54:26;12.10;99.90
1766;DHT22;880;52.452;8.656;2023-04-23T01:56:53;12.20;99.90
1766;DHT22;880;52.452;8.656;2023-04-23T01:59:21;12.20;99.90
1766;DHT22;880;52.452;8.656;2023-04-23T02:01:49;12.20;99.90
1766;DHT22;880;52.452;8.656;2023-04-23T02:04:17;12.20;99.90
1766;DHT22;880;52.452;8.656;2023-04-23T02:06:46;12.20;99.90
1766;DHT22;880;52.452;8.656;2023-04-23T02:09:15;12.20;99.90
1766;DHT22;880;52.452;8.656;2023-04-23T02:11:42;12.20;99.90
1766;DHT22;880;52.452;8.656;2023-04-23T02:14:10;12.10;99.90
1766;DHT22;880;52.452;8.656;2023-04-23T02:16:37;12.00;99.90
1766;DHT22;880;52.452;8.656;2023-04-23T02:19:04;11.90;99.90
1766;DHT22;880;52.452;8.656;2023-04-23T02:21:31;11.80;99.90
1766;DHT22;880;52.452;8.656;2023-04-23T02:23:58;11.80;99.90
1766;DHT22;880;52.452;8.656;2023-04-23T02:26:25;11.80;99.90
1766;DHT22;880;52.452;8.656;2023-04-23T02:28:54;11.70;99.90
1766;DHT22;880;52.452;8.656;2023-04-23T02:31:21;11.70;99.90
1766;DHT22;880;52.452;8.656;2023-04-23T02:33:48;11.70;99.90
1766;DHT22;880;52.452;8.656;2023-04-23T02:36:15;11.70;99.90
1766;DHT22;880;52.452;8.656;2023-04-23T02:38:43;11.70;99.90
1766;DHT22;880;52.452;8.656;2023-04-23T02:41:11;11.70;99.90
1766;DHT22;880;52.452;8.656;2023-04-23T02:43:37;11.60;99.90
1766;DHT22;880;52.452;8.656;2023-04-23T02:46:04;11.50;99.90
1766;DHT22;880;52.452;8.656;2023-04-23T02:48:39;11.50;99.90
1766;DHT22;880;52.452;8.656;2023-04-23T02:51:11;11.50;99.90
1766;DHT22;880;52.452;8.656;2023-04-23T02:53:39;11.40;99.90
1766;DHT22;880;52.452;8.656;2023-04-23T02:56:06;11.40;99.90
1766;DHT22;880;52.452;8.656;2023-04-23T02:58:33;11.30;99.90
1766;DHT22;880;52.452;8.656;2023-04-23T03:01:01;11.30;99.90
1766;DHT22;880;52.452;8.656;2023-04-23T03:03:30;11.30;99.90
1766;DHT22;880;52.452;8.656;2023-04-23T03:06:00;11.20;99.90
1766;DHT22;880;52.452;8.656;2023-04-23T03:08:27;11.10;99.90
1766;DHT22;880;52.452;8.656;2023-04-23T03:10:54;11.10;99.90
1766;DHT22;880;52.452;8.656;2023-04-23T03:13:22;11.10;99.90
1766;DHT22;880;52.452;8.656;2023-04-23T03:15:50;11.10;99.90
1766;DHT22;880;52.452;8.656;2023-04-23T03:18:17;11.10;99.90
1766;DHT22;880;52.452;8.656;2023-04-23T03:20:47;11.10;99.90
1766;DHT22;880;52.452;8.656;2023-04-23T03:23:16;11.10;99.90
1766;DHT22;880;52.452;8.656;2023-04-23T03:25:44;11.00;99.90
1766;DHT22;880;52.452;8.656;2023-04-23T03:28:11;11.00;99.90
1766;DHT22;880;52.452;8.656;2023-04-23T03:30:38;11.00;99.90
1766;DHT22;880;52.452;8.656;2023-04-23T03:33:06;10.90;99.90
1766;DHT22;880;52.452;8.656;2023-04-23T03:35:33;10.90;99.90
1766;DHT22;880;52.452;8.656;2023-04-23T03:38:02;10.90;99.90
1766;DHT22;880;52.452;8.656;2023-04-23T03:40:30;10.90;99.90
1766;DHT22;880;52.452;8.656;2023-04-23T03:43:01;10.90;99.90
1766;DHT22;880;52.452;8.656;2023-04-23T03:45:48;10.90;99.90
1766;DHT22;880;52.452;8.656;2023-04-23T03:48:15;10.90;99.90
1766;DHT22;880;52.452;8.656;2023-04-23T03:50:43;10.90;99.90
1766;DHT22;880;52.452;8.656;2023-04-23T03:53:23;10.90;99.90
1766;DHT22;880;52.452;8.656;2023-04-23T03:56:13;10.90;99.90
1766;DHT22;880;52.452;8.656;2023-04-23T03:58:47;11.00;99.90
1766;DHT22;880;52.452;8.656;2023-04-23T04:01:14;11.20;99.90
1766;DHT22;880;52.452;8.656;2023-04-23T04:03:42;11.30;99.90
1766;DHT22;880;52.452;8.656;2023-04-23T04:06:09;11.30;99.90
1766;DHT22;880;52.452;8.656;2023-04-23T04:08:36;11.20;99.90
1766;DHT22;880;52.452;8.656;2023-04-23T04:11:03;11.10;99.90
1766;DHT22;880;52.452;8.656;2023-04-23T04:13:30;11.00;99.90
1766;DHT22;880;52.452;8.656;2023-04-23T04:15:57;11.00;99.90
1766;DHT22;880;52.452;8.656;2023-04-23T04:18:24;10.90;99.90
1766;DHT22;880;52.452;8.656;2023-04-23T04:20:51;10.90;99.90
1766;DHT22;880;52.452;8.656;2023-04-23T04:23:18;10.90;99.90
1766;DHT22;880;52.452;8.656;2023-04-23T04:25:46;10.90;99.90
1766;DHT22;880;52.452;8.656;2023-04-23T04:28:13;10.90;99.90
1766;DHT22;880;52.452;8.656;2023-04-23T04:30:40;11.00;99.90
1766;DHT22;880;52.452;8.656;2023-04-23T04:33:08;10.90;99.90
1766;DHT22;880;52.452;8.656;2023-04-23T04:35:35;11.00;99.90
1766;DHT22;880;52.452;8.656;2023-04-23T04:38:02;10.90;99.90
1766;DHT22;880;52.452;8.656;2023-04-23T04:40:29;11.00;99.90
1766;DHT22;880;52.452;8.656;2023-04-23T04:42:57;11.00;99.90
1766;DHT22;880;52.452;8.656;2023-04-23T04:45:25;10.90;99.90
1766;DHT22;880;52.452;8.656;2023-04-23T04:47:52;10.90;99.90
1766;DHT22;880;52.452;8.656;2023-04-23T04:50:19;10.80;99.90
1766;DHT22;880;52.452;8.656;2023-04-23T04:52:46;10.90;99.90
1766;DHT22;880;52.452;8.656;2023-04-23T04:55:13;11.00;99.90
1766;DHT22;880;52.452;8.656;2023-04-23T04:57:40;11.10;99.90
1766;DHT22;880;52.452;8.656;2023-04-23T05:00:24;11.20;99.90
1766;DHT22;880;52.452;8.656;2023-04-23T05:02:56;11.30;99.90
1766;DHT22;880;52.452;8.656;2023-04-23T05:05:24;11.40;99.90
1766;DHT22;880;52.452;8.656;2023-04-23T05:07:52;11.40;99.90
1766;DHT22;880;52.452;8.656;2023-04-23T05:10:20;11.50;99.90
1766;DHT22;880;52.452;8.656;2023-04-23T05:12:47;11.50;99.90
1766;DHT22;880;52.452;8.656;2023-04-23T05:15:14;11.50;99.90
1766;DHT22;880;52.452;8.656;2023-04-23T05:17:43;11.50;99.90
1766;DHT22;880;52.452;8.656;2023-04-23T05:20:10;11.50;99.90
1766;DHT22;880;52.452;8.656;2023-04-23T05:22:38;11.50;99.90
1766;DHT22;880;52.452;8.656;2023-04-23T05:25:07;11.60;99.90
1766;DHT22;880;52.452;8.656;2023-04-23T05:27:35;11.50;99.90
1766;DHT22;880;52.452;8.656;2023-04-23T05:30:03;11.50;99.90
1766;DHT22;880;52.452;8.656;2023-04-23T05:32:31;11.50;99.90
1766;DHT22;880;52.452;8.656;2023-04-23T05:34:59;11.50;99.90
1766;DHT22;880;52.452;8.656;2023-04-23T05:37:26;11.50;99.90
1766;DHT22;880;52.452;8.656;2023-04-23T05:39:54;11.50;99.90
1766;DHT22;880;52.452;8.656;2023-04-23T05:42:21;11.40;99.90
1766;DHT22;880;52.452;8.656;2023-04-23T05:44:48;11.30;99.90
1766;DHT22;880;52.452;8.656;2023-04-23T05:47:15;11.20;99.90
1766;DHT22;880;52.452;8.656;2023-04-23T05:49:42;11.20;99.90
1766;DHT22;880;52.452;8.656;2023-04-23T05:52:10;11.30;99.90
1766;DHT22;880;52.452;8.656;2023-04-23T05:54:37;11.40;99.90
1766;DHT22;880;52.452;8.656;2023-04-23T05:57:05;11.50;99.90
1766;DHT22;880;52.452;8.656;2023-04-23T05:59:32;11.50;99.90
1766;DHT22;880;52.452;8.656;2023-04-23T06:01:59;11.60;99.90
1766;DHT22;880;52.452;8.656;2023-04-23T06:04:26;11.60;99.90
1766;DHT22;880;52.452;8.656;2023-04-23T06:06:54;11.60;99.90
1766;DHT22;880;52.452;8.656;2023-04-23T06:09:21;11.70;99.90
1766;DHT22;880;52.452;8.656;2023-04-23T06:11:48;11.70;99.90
1766;DHT22;880;52.452;8.656;2023-04-23T06:14:16;11.70;99.90
1766;DHT22;880;52.452;8.656;2023-04-23T06:16:43;11.70;99.90
1766;DHT22;880;52.452;8.656;2023-04-23T06:19:10;11.70;99.90
1766;DHT22;880;52.452;8.656;2023-04-23T06:21:37;11.70;99.90
1766;DHT22;880;52.452;8.656;2023-04-23T06:24:05;11.80;99.90
1766;DHT22;880;52.452;8.656;2023-04-23T06:26:33;11.90;99.90
1766;DHT22;880;52.452;8.656;2023-04-23T06:29:08;11.90;99.90
1766;DHT22;880;52.452;8.656;2023-04-23T06:31:59;11.90;99.90
1766;DHT22;880;52.452;8.656;2023-04-23T06:34:27;12.00;99.90
1766;DHT22;880;52.452;8.656;2023-04-23T06:36:54;12.10;99.90
1766;DHT22;880;52.452;8.656;2023-04-23T06:39:21;12.20;99.90
1766;DHT22;880;52.452;8.656;2023-04-23T06:41:48;12.30;99.90
1766;DHT22;880;52.452;8.656;2023-04-23T06:44:41;12.40;99.90
1766;DHT22;880;52.452;8.656;2023-04-23T06:47:08;12.50;99.90
1766;DHT22;880;52.452;8.656;2023-04-23T06:49:36;12.50;99.90
1766;DHT22;880;52.452;8.656;2023-04-23T06:52:02;12.50;99.90
1766;DHT22;880;52.452;8.656;2023-04-23T06:54:29;12.60;99.90
1766;DHT22;880;52.452;8.656;2023-04-23T06:56:56;12.60;99.90
1766;DHT22;880;52.452;8.656;2023-04-23T06:59:23;12.60;99.90
1766;DHT22;880;52.452;8.656;2023-04-23T07:01:53;12.50;99.90
1766;DHT22;880;52.452;8.656;2023-04-23T07:04:20;12.60;99.90
1766;DHT22;880;52.452;8.656;2023-04-23T07:06:47;12.80;99.90
1766;DHT22;880;52.452;8.656;2023-04-23T07:09:14;13.10;99.90
1766;DHT22;880;52.452;8.656;2023-04-23T07:11:41;13.20;99.90
1766;DHT22;880;52.452;8.656;2023-04-23T07:14:08;13.30;99.90
1766;DHT22;880;52.452;8.656;2023-04-23T07:16:35;13.40;99.90
1766;DHT22;880;52.452;8.656;2023-04-23T07:19:02;13.40;99.90
1766;DHT22;880;52.452;8.656;2023-04-23T07:21:29;13.50;99.90
1766;DHT22;880;52.452;8.656;2023-04-23T07:23:57;13.40;99.90
1766;DHT22;880;52.452;8.656;2023-04-23T07:26:25;13.40;99.90
1766;DHT22;880;52.452;8.656;2023-04-23T07:28:53;13.40;99.90
1766;DHT22;880;52.452;8.656;2023-04-23T07:31:20;13.60;99.90
1766;DHT22;880;52.452;8.656;2023-04-23T07:33:47;13.70;99.90
1766;DHT22;880;52.452;8.656;2023-04-23T07:36:14;13.90;99.90
1766;DHT22;880;52.452;8.656;2023-04-23T07:38:41;14.00;99.90
1766;DHT22;880;52.452;8.656;2023-04-23T07:41:08;14.20;99.90
1766;DHT22;880;52.452;8.656;2023-04-23T07:43:35;14.30;99.90
1766;DHT22;880;52.452;8.656;2023-04-23T07:46:02;14.50;99.90
1766;DHT22;880;52.452;8.656;2023-04-23T07:48:30;14.60;99.90
1766;DHT22;880;52.452;8.656;2023-04-23T07:50:57;14.80;99.90
1766;DHT22;880;52.452;8.656;2023-04-23T07:53:24;14.90;99.90
1766;DHT22;880;52.452;8.656;2023-04-23T07:55:51;15.00;99.90
1766;DHT22;880;52.452;8.656;2023-04-23T07:58:18;15.30;99.90
1766;DHT22;880;52.452;8.656;2023-04-23T08:00:45;15.40;99.90
1766;DHT22;880;52.452;8.656;2023-04-23T08:03:12;15.60;99.90
1766;DHT22;880;52.452;8.656;2023-04-23T08:05:40;15.80;99.90
1766;DHT22;880;52.452;8.656;2023-04-23T08:08:07;15.90;99.90
1766;DHT22;880;52.452;8.656;2023-04-23T08:10:36;16.00;99.90
1766;DHT22;880;52.452;8.656;2023-04-23T08:13:03;16.20;99.90
1766;DHT22;880;52.452;8.656;2023-04-23T08:15:30;16.60;99.90
1766;DHT22;880;52.452;8.656;2023-04-23T08:17:57;16.80;99.90
1766;DHT22;880;52.452;8.656;2023-04-23T08:20:25;17.00;99.90
1766;DHT22;880;52.452;8.656;2023-04-23T08:22:53;17.20;99.90
1766;DHT22;880;52.452;8.656;2023-04-23T08:25:21;17.40;99.90
1766;DHT22;880;52.452;8.656;2023-04-23T08:27:48;17.50;99.90
1766;DHT22;880;52.452;8.656;2023-04-23T08:30:15;17.30;99.90
1766;DHT22;880;52.452;8.656;2023-04-23T08:32:42;17.20;99.90
1766;DHT22;880;52.452;8.656;2023-04-23T08:35:09;17.50;99.90
1766;DHT22;880;52.452;8.656;2023-04-23T08:37:36;17.70;99.90
1766;DHT22;880;52.452;8.656;2023-04-23T08:40:06;17.90;99.90
1766;DHT22;880;52.452;8.656;2023-04-23T08:42:49;18.10;99.90
1766;DHT22;880;52.452;8.656;2023-04-23T08:45:21;18.30;99.90
1766;DHT22;880;52.452;8.656;2023-04-23T08:47:48;18.40;99.90
1766;DHT22;880;52.452;8.656;2023-04-23T08:50:17;18.20;99.90
1766;DHT22;880;52.452;8.656;2023-04-23T08:52:55;18.00;99.90
1766;DHT22;880;52.452;8.656;2023-04-23T08:55:24;17.90;99.90
1766;DHT22;880;52.452;8.656;2023-04-23T08:57:51;18.00;99.90
1766;DHT22;880;52.452;8.656;2023-04-23T09:00:19;18.00;99.90
1766;DHT22;880;52.452;8.656;2023-04-23T09:02:49;18.20;99.90
1766;DHT22;880;52.452;8.656;2023-04-23T09:05:16;18.30;99.90
1766;DHT22;880;52.452;8.656;2023-04-23T09:07:44;18.20;99.90
1766;DHT22;880;52.452;8.656;2023-04-23T09:10:11;18.10;99.90
1766;DHT22;880;52.452;8.656;2023-04-23T09:12:42;17.90;99.90
1766;DHT22;880;52.452;8.656;2023-04-23T09:15:11;17.90;99.90
1766;DHT22;880;52.452;8.656;2023-04-23T09:17:43;18.20;99.90
1766;DHT22;880;52.452;8.656;2023-04-23T09:20:12;18.30;99.90
1766;DHT22;880;52.452;8.656;2023-04-23T09:22:45;18.20;99.90
1766;DHT22;880;52.452;8.656;2023-04-23T09:25:18;18.50;99.90
1766;DHT22;880;52.452;8.656;2023-04-23T09:27:47;18.80;99.90
1766;DHT22;880;52.452;8.656;2023-04-23T09:30:15;18.90;99.90
1766;DHT22;880;52.452;8.656;2023-04-23T09:32:43;19.00;99.90
1766;DHT22;880;52.452;8.656;2023-04-23T09:35:15;18.80;99.90
1766;DHT22;880;52.452;8.656;2023-04-23T09:37:48;18.70;99.90
1766;DHT22;880;52.452;8.656;2023-04-23T09:40:22;18.50;99.90
1766;DHT22;880;52.452;8.656;2023-04-23T09:42:51;18.60;99.90
1766;DHT22;880;52.452;8.656;2023-04-23T09:45:20;18.80;99.90
1766;DHT22;880;52.452;8.656;2023-04-23T09:47:57;18.70;99.90
1766;DHT22;880;52.452;8.656;2023-04-23T09:53:04;19.00;99.90
1766;DHT22;880;52.452;8.656;2023-04-23T09:55:34;18.80;99.90
1766;DHT22;880;52.452;8.656;2023-04-23T09:58:13;18.90;99.90
1766;DHT22;880;52.452;8.656;2023-04-23T10:00:41;18.70;99.90
1766;DHT22;880;52.452;8.656;2023-04-23T10:03:09;18.40;99.90
1766;DHT22;880;52.452;8.656;2023-04-23T10:05:38;18.20;99.90
1766;DHT22;880;52.452;8.656;2023-04-23T10:08:26;18.10;99.90
1766;DHT22;880;52.452;8.656;2023-04-23T10:10:53;17.80;99.90
1766;DHT22;880;52.452;8.656;2023-04-23T10:13:40;17.70;99.90
1766;DHT22;880;52.452;8.656;2023-04-23T10:16:07;17.80;99.90
1766;DHT22;880;52.452;8.656;2023-04-23T10:18:50;18.10;99.90
1766;DHT22;880;52.452;8.656;2023-04-23T10:21:18;18.50;99.90
1766;DHT22;880;52.452;8.656;2023-04-23T10:23:46;18.70;99.90
1766;DHT22;880;52.452;8.656;2023-04-23T10:26:16;18.70;99.90
1766;DHT22;880;52.452;8.656;2023-04-23T10:28:46;19.00;99.90
1766;DHT22;880;52.452;8.656;2023-04-23T10:31:16;19.20;99.90
1766;DHT22;880;52.452;8.656;2023-04-23T10:33:47;19.50;99.90
1766;DHT22;880;52.452;8.656;2023-04-23T10:36:22;19.70;99.90
1766;DHT22;880;52.452;8.656;2023-04-23T10:38:51;19.90;99.90
1766;DHT22;880;52.452;8.656;2023-04-23T10:41:37;20.00;99.90
1766;DHT22;880;52.452;8.656;2023-04-23T10:44:05;20.00;99.90
1766;DHT22;880;52.452;8.656;2023-04-23T10:46:37;19.50;99.90
1766;DHT22;880;52.452;8.656;2023-04-23T10:51:36;19.40;99.90
1766;DHT22;880;52.452;8.656;2023-04-23T10:54:06;19.40;99.90
1766;DHT22;880;52.452;8.656;2023-04-23T10:56:37;19.30;99.90
1766;DHT22;880;52.452;8.656;2023-04-23T10:59:20;19.30;99.90
1766;DHT22;880;52.452;8.656;2023-04-23T11:01:49;19.50;99.90
1766;DHT22;880;52.452;8.656;2023-04-23T11:04:24;19.70;99.90
1766;DHT22;880;52.452;8.656;2023-04-23T11:06:56;19.80;99.90
1766;DHT22;880;52.452;8.656;2023-04-23T11:09:38;20.20;99.90
1766;DHT22;880;52.452;8.656;2023-04-23T11:14:51;20.60;99.90
1766;DHT22;880;52.452;8.656;2023-04-23T11:20:14;20.40;99.90
1766;DHT22;880;52.452;8.656;2023-04-23T11:22:47;19.90;99.90
1766;DHT22;880;52.452;8.656;2023-04-23T11:25:25;19.80;99.90
1766;DHT22;880;52.452;8.656;2023-04-23T11:27:54;19.80;99.90
1766;DHT22;880;52.452;8.656;2023-04-23T11:30:28;20.00;99.90
1766;DHT22;880;52.452;8.656;2023-04-23T11:32:57;20.30;99.90
1766;DHT22;880;52.452;8.656;2023-04-23T11:35:26;20.40;99.90
1766;DHT22;880;52.452;8.656;2023-04-23T11:37:55;20.60;99.90
1766;DHT22;880;52.452;8.656;2023-04-23T11:40:27;20.60;99.90
1766;DHT22;880;52.452;8.656;2023-04-23T11:42:56;20.60;99.90
1766;DHT22;880;52.452;8.656;2023-04-23T11:45:26;20.90;99.90
1766;DHT22;880;52.452;8.656;2023-04-23T11:47:54;20.80;99.90
1766;DHT22;880;52.452;8.656;2023-04-23T11:50:29;20.20;99.90
1766;DHT22;880;52.452;8.656;2023-04-23T11:53:06;19.90;99.90
1766;DHT22;880;52.452;8.656;2023-04-23T11:55:35;19.50;99.90
1766;DHT22;880;52.452;8.656;2023-04-23T11:58:03;19.30;99.90
1766;DHT22;880;52.452;8.656;2023-04-23T12:00:31;19.50;99.90
1766;DHT22;880;52.452;8.656;2023-04-23T12:02:59;19.60;99.90
1766;DHT22;880;52.452;8.656;2023-04-23T12:05:32;19.50;99.90
1766;DHT22;880;52.452;8.656;2023-04-23T12:08:17;19.30;99.90
1766;DHT22;880;52.452;8.656;2023-04-23T12:10:48;19.10;99.90
1766;DHT22;880;52.452;8.656;2023-04-23T12:13:26;19.10;99.90
1766;DHT22;880;52.452;8.656;2023-04-23T12:15:57;19.00;99.90
1766;DHT22;880;52.452;8.656;2023-04-23T12:18:29;19.00;99.90
1766;DHT22;880;52.452;8.656;2023-04-23T12:21:07;19.10;99.90
1766;DHT22;880;52.452;8.656;2023-04-23T12:23:37;19.10;99.90
1766;DHT22;880;52.452;8.656;2023-04-23T12:26:10;19.10;99.90
1766;DHT22;880;52.452;8.656;2023-04-23T12:28:49;19.30;99.90
1766;DHT22;880;52.452;8.656;2023-04-23T12:31:22;19.70;99.90
1766;DHT22;880;52.452;8.656;2023-04-23T12:34:01;20.10;99.90
1766;DHT22;880;52.452;8.656;2023-04-23T12:36:33;20.30;99.90
1766;DHT22;880;52.452;8.656;2023-04-23T12:39:33;20.40;99.90
1766;DHT22;880;52.452;8.656;2023-04-23T12:42:06;20.50;99.90
1766;DHT22;880;52.452;8.656;2023-04-23T12:44:36;20.50;99.90
1766;DHT22;880;52.452;8.656;2023-04-23T12:47:11;20.40;99.90
1766;DHT22;880;52.452;8.656;2023-04-23T12:49:39;20.30;99.90
1766;DHT22;880;52.452;8.656;2023-04-23T12:52:07;20.20;99.90
1766;DHT22;880;52.452;8.656;2023-04-23T12:54:38;19.90;99.90
1766;DHT22;880;52.452;8.656;2023-04-23T12:57:10;19.70;99.90
1766;DHT22;880;52.452;8.656;2023-04-23T12:59:38;19.40;99.90
1766;DHT22;880;52.452;8.656;2023-04-23T13:02:05;19.30;99.90
1766;DHT22;880;52.452;8.656;2023-04-23T13:04:34;19.10;99.90
1766;DHT22;880;52.452;8.656;2023-04-23T13:07:02;19.00;99.90
1766;DHT22;880;52.452;8.656;2023-04-23T13:09:29;18.80;99.90
1766;DHT22;880;52.452;8.656;2023-04-23T13:11:56;18.60;99.90
1766;DHT22;880;52.452;8.656;2023-04-23T13:14:26;18.10;99.90
1766;DHT22;880;52.452;8.656;2023-04-23T13:16:53;17.40;99.90
1766;DHT22;880;52.452;8.656;2023-04-23T13:19:21;17.00;99.90
1766;DHT22;880;52.452;8.656;2023-04-23T13:21:47;16.90;99.90
1766;DHT22;880;52.452;8.656;2023-04-23T13:24:15;16.80;99.90
1766;DHT22;880;52.452;8.656;2023-04-23T13:26:42;16.80;99.90
1766;DHT22;880;52.452;8.656;2023-04-23T13:29:09;16.90;99.90
1766;DHT22;880;52.452;8.656;2023-04-23T13:31:36;17.00;99.90
1766;DHT22;880;52.452;8.656;2023-04-23T13:34:03;17.10;99.90
1766;DHT22;880;52.452;8.656;2023-04-23T13:36:30;17.10;99.90
1766;DHT22;880;52.452;8.656;2023-04-23T13:38:57;17.10;99.90
1766;DHT22;880;52.452;8.656;2023-04-23T13:41:24;17.10;99.90
1766;DHT22;880;52.452;8.656;2023-04-23T13:43:51;17.00;99.90
1766;DHT22;880;52.452;8.656;2023-04-23T13:46:18;16.80;99.90
1766;DHT22;880;52.452;8.656;2023-04-23T13:48:45;16.90;99.90
1766;DHT22;880;52.452;8.656;2023-04-23T13:51:12;17.00;99.90
1766;DHT22;880;52.452;8.656;2023-04-23T13:53:58;17.00;99.90
1766;DHT22;880;52.452;8.656;2023-04-23T13:56:26;17.20;99.90
1766;DHT22;880;52.452;8.656;2023-04-23T13:58:53;17.30;99.90
1766;DHT22;880;52.452;8.656;2023-04-23T14:01:33;17.50;99.90
1766;DHT22;880;52.452;8.656;2023-04-23T14:04:01;17.60;99.90
1766;DHT22;880;52.452;8.656;2023-04-23T14:06:30;17.60;99.90
1766;DHT22;880;52.452;8.656;2023-04-23T14:08:57;17.70;99.90
1766;DHT22;880;52.452;8.656;2023-04-23T14:11:24;17.80;99.90
1766;DHT22;880;52.452;8.656;2023-04-23T14:13:50;17.90;99.90
1766;DHT22;880;52.452;8.656;2023-04-23T14:16:17;18.00;99.90
1766;DHT22;880;52.452;8.656;2023-04-23T14:18:44;18.10;99.90
1766;DHT22;880;52.452;8.656;2023-04-23T14:21:12;18.30;99.90
1766;DHT22;880;52.452;8.656;2023-04-23T14:23:54;18.40;99.90
1766;DHT22;880;52.452;8.656;2023-04-23T14:26:33;18.50;99.90
1766;DHT22;880;52.452;8.656;2023-04-23T14:29:23;18.60;99.90
1766;DHT22;880;52.452;8.656;2023-04-23T14:31:55;18.70;99.90
1766;DHT22;880;52.452;8.656;2023-04-23T14:34:22;18.80;99.90
1766;DHT22;880;52.452;8.656;2023-04-23T14:36:49;18.90;99.90
1766;DHT22;880;52.452;8.656;2023-04-23T14:39:20;19.10;99.90
1766;DHT22;880;52.452;8.656;2023-04-23T14:41:48;19.20;99.90
1766;DHT22;880;52.452;8.656;2023-04-23T14:44:14;19.20;99.90
1766;DHT22;880;52.452;8.656;2023-04-23T14:46:41;19.30;99.90
1766;DHT22;880;52.452;8.656;2023-04-23T14:49:09;19.60;99.90
1766;DHT22;880;52.452;8.656;2023-04-23T14:51:36;19.80;99.90
1766;DHT22;880;52.452;8.656;2023-04-23T14:54:03;20.00;99.90
1766;DHT22;880;52.452;8.656;2023-04-23T14:56:30;20.10;99.90
1766;DHT22;880;52.452;8.656;2023-04-23T14:58:57;20.20;99.90
1766;DHT22;880;52.452;8.656;2023-04-23T15:01:25;20.20;99.90
1766;DHT22;880;52.452;8.656;2023-04-23T15:03:52;20.20;99.90
1766;DHT22;880;52.452;8.656;2023-04-23T15:06:19;20.00;99.90
1766;DHT22;880;52.452;8.656;2023-04-23T15:08:47;20.00;99.90
1766;DHT22;880;52.452;8.656;2023-04-23T15:11:14;19.90;99.90
1766;DHT22;880;52.452;8.656;2023-04-23T15:16:32;19.70;99.90
1766;DHT22;880;52.452;8.656;2023-04-23T15:19:04;19.70;99.90
1766;DHT22;880;52.452;8.656;2023-04-23T15:21:38;19.60;99.90
1766;DHT22;880;52.452;8.656;2023-04-23T15:24:07;19.40;99.90
1766;DHT22;880;52.452;8.656;2023-04-23T15:26:35;19.30;99.90
1766;DHT22;880;52.452;8.656;2023-04-23T15:29:03;19.10;99.90
1766;DHT22;880;52.452;8.656;2023-04-23T15:31:31;19.00;99.90
1766;DHT22;880;52.452;8.656;2023-04-23T15:33:58;18.80;99.90
1766;DHT22;880;52.452;8.656;2023-04-23T15:36:25;18.60;99.90
1766;DHT22;880;52.452;8.656;2023-04-23T15:38:52;18.10;99.90
1766;DHT22;880;52.452;8.656;2023-04-23T15:41:19;17.60;99.90
1766;DHT22;880;52.452;8.656;2023-04-23T15:43:47;16.90;99.90
1766;DHT22;880;52.452;8.656;2023-04-23T15:46:15;16.10;99.90
1766;DHT22;880;52.452;8.656;2023-04-23T15:48:43;15.70;99.90
1766;DHT22;880;52.452;8.656;2023-04-23T15:51:11;15.30;99.90
1766;DHT22;880;52.452;8.656;2023-04-23T15:53:38;14.90;99.90
1766;DHT22;880;52.452;8.656;2023-04-23T15:56:05;14.60;99.90
1766;DHT22;880;52.452;8.656;2023-04-23T15:58:32;14.50;99.90
1766;DHT22;880;52.452;8.656;2023-04-23T16:00:58;14.30;99.90
1766;DHT22;880;52.452;8.656;2023-04-23T16:03:27;14.30;99.90
1766;DHT22;880;52.452;8.656;2023-04-23T16:05:54;14.30;99.90
1766;DHT22;880;52.452;8.656;2023-04-23T16:08:21;14.40;99.90
1766;DHT22;880;52.452;8.656;2023-04-23T16:10:48;14.60;99.90
1766;DHT22;880;52.452;8.656;2023-04-23T16:13:15;14.70;99.90
1766;DHT22;880;52.452;8.656;2023-04-23T16:15:42;14.80;99.90
1766;DHT22;880;52.452;8.656;2023-04-23T16:18:09;15.00;99.90
1766;DHT22;880;52.452;8.656;2023-04-23T16:20:36;15.20;99.90
1766;DHT22;880;52.452;8.656;2023-04-23T16:23:03;15.20;99.90
1766;DHT22;880;52.452;8.656;2023-04-23T16:25:32;15.10;99.90
1766;DHT22;880;52.452;8.656;2023-04-23T16:27:59;15.10;99.90
1766;DHT22;880;52.452;8.656;2023-04-23T16:30:26;15.20;99.90
1766;DHT22;880;52.452;8.656;2023-04-23T16:32:53;15.30;99.90
1766;DHT22;880;52.452;8.656;2023-04-23T16:35:20;15.30;99.90
1766;DHT22;880;52.452;8.656;2023-04-23T16:37:47;15.30;99.90
1766;DHT22;880;52.452;8.656;2023-04-23T16:40:14;15.40;99.90
1766;DHT22;880;52.452;8.656;2023-04-23T16:42:41;15.40;99.90